createdAt,value
2023-03-23T00:02:39.174Z,7.60
2023-03-23T00:06:42.681Z,7.70
2023-03-23T00:10:43.096Z,7.70
2023-03-23T00:14:44.900Z,7.70
2023-03-23T00:18:45.506Z,7.80
2023-03-23T00:22:48.825Z,7.80
2023-03-23T00:26:52.661Z,7.80
2023-03-23T00:30:57.943Z,7.70
2023-03-23T00:35:00.297Z,7.70
2023-03-23T00:39:03.784Z,7.60
2023-03-23T00:43:05.028Z,7.50
2023-03-23T00:47:10.124Z,7.30
2023-03-23T00:51:13.760Z,7.20
2023-03-23T00:55:17.319Z,7.10
2023-03-23T00:59:18.560Z,7.10
2023-03-23T01:03:19.501Z,7.10
2023-03-23T01:07:20.119Z,7.00
2023-03-23T01:11:23.497Z,7.00
2023-03-23T01:15:25.920Z,7.00
2023-03-23T01:19:26.809Z,7.00
2023-03-23T01:23:28.644Z,7.00
2023-03-23T01:27:31.752Z,7.00
2023-03-23T01:31:32.854Z,7.00
2023-03-23T01:35:33.793Z,7.00
2023-03-23T01:39:34.215Z,7.00
2023-03-23T01:43:37.751Z,7.10
2023-03-23T01:47:38.515Z,7.10
2023-03-23T01:51:45.016Z,7.10
2023-03-23T01:55:51.516Z,7.00
2023-03-23T01:59:59.339Z,7.10
2023-03-23T02:04:02.533Z,7.10
2023-03-23T02:08:09.726Z,7.10
2023-03-23T02:12:11.667Z,7.20
2023-03-23T02:16:29.457Z,7.30
2023-03-23T02:20:56.870Z,7.30
2023-03-23T02:25:15.670Z,7.60
2023-03-23T02:30:02.424Z,7.80
2023-03-23T02:34:18.545Z,8.00
2023-03-23T02:38:26.115Z,8.20
2023-03-23T02:42:33.911Z,8.30
2023-03-23T02:46:36.175Z,8.60
2023-03-23T02:50:42.215Z,8.90
2023-03-23T02:54:45.612Z,9.00
2023-03-23T02:58:46.703Z,9.20
2023-03-23T03:02:54.733Z,9.30
2023-03-23T03:07:26.008Z,9.30
2023-03-23T03:11:27.201Z,9.30
2023-03-23T03:15:37.933Z,9.20
2023-03-23T03:19:43.109Z,9.30
2023-03-23T03:23:52.395Z,9.30
2023-03-23T03:27:54.299Z,9.30
2023-03-23T03:32:10.737Z,9.40
2023-03-23T03:36:20.023Z,9.40
2023-03-23T03:40:26.442Z,9.50
2023-03-23T03:44:27.509Z,9.70
2023-03-23T03:48:30.008Z,9.70
2023-03-23T03:52:31.568Z,9.80
2023-03-23T03:56:41.787Z,9.80
2023-03-23T04:01:05.060Z,9.70
2023-03-23T04:05:11.664Z,9.70
2023-03-23T04:09:14.502Z,9.70
2023-03-23T04:13:18.833Z,9.70
2023-03-23T04:17:42.179Z,9.70
2023-03-23T04:21:43.234Z,9.70
2023-03-23T04:25:44.682Z,9.70
2023-03-23T04:29:50.966Z,9.80
2023-03-23T04:34:11.004Z,9.70
2023-03-23T04:38:21.581Z,9.80
2023-03-23T04:42:27.580Z,9.80
2023-03-23T04:46:50.834Z,9.80
2023-03-23T04:50:55.788Z,9.70
2023-03-23T04:55:02.839Z,9.70
2023-03-23T04:59:04.354Z,9.70
2023-03-23T05:03:11.686Z,9.70
2023-03-23T05:07:14.303Z,9.70
2023-03-23T05:11:18.540Z,9.70
2023-03-23T05:15:21.128Z,9.80
2023-03-23T05:19:24.656Z,9.80
2023-03-23T05:23:32.408Z,9.90
2023-03-23T05:27:43.673Z,10.00
2023-03-23T05:31:56.996Z,10.10
2023-03-23T05:36:00.394Z,10.20
2023-03-23T05:40:07.184Z,10.20
2023-03-23T05:44:21.217Z,10.30
2023-03-23T05:48:25.997Z,10.40
2023-03-23T05:52:29.750Z,10.50
2023-03-23T05:56:31.722Z,10.70
2023-03-23T06:00:43.935Z,10.80
2023-03-23T06:04:58.505Z,11.00
2023-03-23T06:09:07.277Z,11.00
2023-03-23T06:13:21.103Z,11.20
2023-03-23T06:17:23.993Z,11.20
2023-03-23T06:21:28.260Z,11.30
2023-03-23T06:25:37.130Z,11.40
2023-03-23T06:29:38.168Z,11.50
2023-03-23T06:33:40.749Z,11.60
2023-03-23T06:38:02.585Z,11.60
2023-03-23T06:42:16.820Z,11.60
2023-03-23T06:46:23.060Z,11.60
2023-03-23T06:50:27.608Z,11.60
2023-03-23T06:54:28.443Z,11.70
2023-03-23T06:58:33.872Z,12.00
2023-03-23T07:02:34.556Z,12.20
2023-03-23T07:06:35.453Z,12.30
2023-03-23T07:10:36.513Z,12.60
2023-03-23T07:14:43.106Z,12.70
2023-03-23T07:18:43.920Z,12.80
2023-03-23T07:22:45.054Z,12.90
2023-03-23T07:26:58.682Z,13.10
2023-03-23T07:31:03.340Z,13.30
2023-03-23T07:35:08.549Z,13.50
2023-03-23T07:39:32.823Z,13.60
2023-03-23T07:43:34.982Z,13.70
2023-03-23T07:47:47.519Z,13.90
2023-03-23T07:51:48.892Z,14.10
2023-03-23T07:55:51.889Z,14.30
2023-03-23T08:00:20.476Z,14.30
2023-03-23T08:04:25.941Z,14.30
2023-03-23T08:08:46.891Z,14.30
2023-03-23T08:13:25.965Z,14.10
2023-03-23T08:18:03.714Z,14.10
2023-03-23T08:22:52.825Z,14.10
2023-03-23T08:27:12.233Z,14.30
2023-03-23T08:31:15.960Z,14.60
2023-03-23T08:35:28.076Z,15.10
2023-03-23T08:40:01.039Z,15.30
2023-03-23T08:44:10.724Z,15.10
2023-03-23T08:48:34.721Z,15.10
2023-03-23T08:52:54.855Z,15.00
2023-03-23T08:57:10.309Z,14.90
2023-03-23T09:01:49.885Z,14.70
2023-03-23T09:05:57.083Z,14.40
2023-03-23T09:09:58.190Z,14.10
2023-03-23T09:14:01.181Z,13.90
2023-03-23T09:18:02.487Z,13.80
2023-03-23T09:22:03.236Z,13.80
2023-03-23T09:26:07.580Z,13.70
2023-03-23T09:30:16.264Z,13.90
2023-03-23T09:34:18.159Z,14.00
2023-03-23T09:38:18.622Z,14.10
2023-03-23T09:42:44.692Z,14.10
2023-03-23T09:47:03.197Z,14.10
2023-03-23T09:51:15.609Z,14.00
2023-03-23T09:55:20.933Z,14.20
2023-03-23T09:59:29.206Z,14.30
2023-03-23T10:03:38.913Z,14.50
2023-03-23T10:07:39.863Z,14.70
2023-03-23T10:12:00.858Z,14.80
2023-03-23T10:16:02.747Z,14.90
2023-03-23T10:20:25.393Z,14.90
2023-03-23T10:24:38.512Z,15.00
2023-03-23T10:28:44.192Z,15.20
2023-03-23T10:32:53.349Z,15.20
2023-03-23T10:37:07.585Z,15.50
2023-03-23T10:41:17.248Z,15.90
2023-03-23T10:45:26.784Z,16.00
2023-03-23T10:49:32.548Z,16.30
2023-03-23T10:53:40.911Z,16.30
2023-03-23T10:57:46.206Z,16.30
2023-03-23T11:01:57.616Z,16.30
2023-03-23T11:06:05.623Z,16.50
2023-03-23T11:10:27.375Z,16.60
2023-03-23T11:14:36.745Z,16.40
2023-03-23T11:18:42.366Z,16.50
2023-03-23T11:22:43.971Z,16.70
2023-03-23T11:26:58.700Z,16.90
2023-03-23T11:31:02.985Z,16.70
2023-03-23T11:35:16.144Z,16.70
2023-03-23T11:39:27.439Z,16.50
2023-03-23T11:43:31.644Z,16.70
2023-03-23T11:47:41.051Z,16.40
2023-03-23T11:51:51.290Z,16.00
2023-03-23T11:56:20.523Z,15.90
2023-03-23T12:00:28.243Z,15.90
2023-03-23T12:05:06.767Z,15.90
2023-03-23T12:09:23.343Z,15.80
2023-03-23T12:13:58.653Z,15.60
2023-03-23T12:18:16.943Z,15.40
2023-03-23T12:22:40.192Z,14.90
2023-03-23T12:26:50.609Z,14.60
2023-03-23T12:31:02.402Z,14.30
2023-03-23T12:35:26.830Z,14.50
2023-03-23T12:40:26.776Z,14.90
2023-03-23T12:44:40.037Z,15.30
2023-03-23T12:48:45.969Z,15.30
2023-03-23T12:52:59.269Z,15.40
2023-03-23T12:57:07.352Z,15.30
2023-03-23T13:01:19.877Z,15.20
2023-03-23T13:05:42.704Z,15.10
2023-03-23T13:10:08.797Z,15.40
2023-03-23T13:14:29.269Z,15.70
2023-03-23T13:18:44.596Z,15.90
2023-03-23T13:22:53.341Z,15.80
2023-03-23T13:26:59.149Z,15.50
2023-03-23T13:31:03.733Z,15.30
2023-03-23T13:35:08.161Z,15.20
2023-03-23T13:39:21.821Z,15.10
2023-03-23T13:43:35.564Z,15.10
2023-03-23T13:47:43.187Z,15.00
2023-03-23T13:52:03.006Z,15.20
2023-03-23T13:56:21.991Z,15.50
2023-03-23T14:00:53.071Z,15.80
2023-03-23T14:04:56.514Z,15.80
2023-03-23T14:09:01.319Z,15.60
2023-03-23T14:13:06.069Z,15.70
2023-03-23T14:17:19.710Z,15.60
2023-03-23T14:21:34.335Z,16.00
2023-03-23T14:25:35.943Z,16.30
2023-03-23T14:29:36.543Z,16.60
2023-03-23T14:33:43.959Z,16.20
2023-03-23T14:37:45.362Z,16.10
2023-03-23T14:41:47.726Z,15.90
2023-03-23T14:45:57.170Z,15.90
2023-03-23T14:50:05.448Z,16.00
2023-03-23T14:54:06.212Z,16.10
2023-03-23T14:58:14.351Z,16.40
2023-03-23T15:02:26.268Z,16.60
2023-03-23T15:06:38.481Z,16.40
2023-03-23T15:10:41.887Z,16.40
2023-03-23T15:14:52.176Z,16.30
2023-03-23T15:18:58.970Z,16.20
2023-03-23T15:23:10.813Z,16.10
2023-03-23T15:27:21.636Z,15.90
2023-03-23T15:31:28.610Z,15.70
2023-03-23T15:35:29.782Z,15.60
2023-03-23T15:39:34.811Z,15.50
2023-03-23T15:43:38.029Z,15.40
2023-03-23T15:47:47.779Z,15.40
2023-03-23T15:51:49.448Z,15.30
2023-03-23T15:55:54.056Z,15.20
2023-03-23T15:59:56.469Z,15.20
2023-03-23T16:04:05.394Z,15.20
2023-03-23T16:08:08.601Z,15.10
2023-03-23T16:12:17.749Z,15.10
2023-03-23T16:16:23.042Z,15.00
2023-03-23T16:20:26.892Z,15.00
2023-03-23T16:24:27.492Z,15.00
2023-03-23T16:28:30.935Z,15.00
2023-03-23T16:32:31.878Z,15.10
2023-03-23T16:36:32.593Z,15.00
2023-03-23T16:40:33.504Z,15.00
2023-03-23T16:44:36.505Z,14.90
2023-03-23T16:48:40.861Z,15.00
2023-03-23T16:52:46.413Z,14.80
2023-03-23T16:56:49.291Z,14.80
2023-03-23T17:00:57.402Z,14.70
2023-03-23T17:04:58.315Z,14.70
2023-03-23T17:08:59.073Z,14.60
2023-03-23T17:13:02.352Z,14.60
2023-03-23T17:17:06.298Z,14.50
2023-03-23T17:21:07.965Z,14.40
2023-03-23T17:25:11.655Z,14.30
2023-03-23T17:29:12.947Z,14.20
2023-03-23T17:33:17.009Z,14.20
2023-03-23T17:37:19.158Z,14.10
2023-03-23T17:41:21.766Z,14.10
2023-03-23T17:45:25.625Z,14.00
2023-03-23T17:49:30.578Z,13.90
2023-03-23T17:53:33.988Z,13.80
2023-03-23T17:57:36.384Z,13.70
2023-03-23T18:01:42.543Z,13.70
2023-03-23T18:05:47.799Z,13.60
2023-03-23T18:09:50.202Z,13.70
2023-03-23T18:13:53.226Z,13.70
2023-03-23T18:17:57.621Z,13.60
2023-03-23T18:22:04.212Z,13.50
2023-03-23T18:26:08.513Z,13.50
2023-03-23T18:30:14.760Z,13.40
2023-03-23T18:34:17.709Z,13.40
2023-03-23T18:38:24.603Z,13.30
2023-03-23T18:42:27.692Z,13.20
2023-03-23T18:46:31.285Z,13.20
2023-03-23T18:50:34.712Z,13.10
2023-03-23T18:54:40.975Z,13.00
2023-03-23T18:58:44.968Z,12.90
2023-03-23T19:02:51.851Z,12.80
2023-03-23T19:06:56.436Z,12.70
2023-03-23T19:11:09.061Z,12.70
2023-03-23T19:15:13.282Z,12.60
2023-03-23T19:19:16.611Z,12.50
2023-03-23T19:23:18.573Z,12.40
2023-03-23T19:27:24.152Z,12.40
2023-03-23T19:31:27.339Z,12.30
2023-03-23T19:35:30.110Z,12.20
2023-03-23T19:39:33.794Z,12.10
2023-03-23T19:43:40.020Z,12.10
2023-03-23T19:47:43.336Z,12.00
2023-03-23T19:51:47.385Z,11.90
2023-03-23T19:55:50.581Z,11.90
2023-03-23T19:59:58.361Z,11.90
2023-03-23T20:04:07.171Z,11.90
2023-03-23T20:08:12.150Z,12.00
2023-03-23T20:12:15.121Z,11.90
2023-03-23T20:16:21.860Z,11.80
2023-03-23T20:20:25.424Z,11.70
2023-03-23T20:24:27.710Z,11.60
2023-03-23T20:28:30.648Z,11.50
2023-03-23T20:32:40.980Z,11.40
2023-03-23T20:36:46.630Z,11.30
2023-03-23T20:40:51.308Z,11.30
2023-03-23T20:44:55.845Z,11.20
2023-03-23T20:49:01.462Z,11.10
2023-03-23T20:53:05.391Z,11.10
2023-03-23T20:57:12.832Z,11.20
2023-03-23T21:01:22.073Z,11.20
2023-03-23T21:05:27.503Z,11.20
2023-03-23T21:09:31.504Z,11.40
2023-03-23T21:13:34.943Z,11.60
2023-03-23T21:17:39.567Z,11.80
2023-03-23T21:21:55.604Z,11.90
2023-03-23T21:26:04.487Z,11.90
2023-03-23T21:30:08.093Z,11.90
2023-03-23T21:34:10.178Z,11.90
2023-03-23T21:38:15.831Z,11.90
2023-03-23T21:42:18.930Z,11.90
2023-03-23T21:46:22.033Z,11.90
2023-03-23T21:50:24.821Z,11.90
2023-03-23T21:54:30.892Z,11.80
2023-03-23T21:58:33.214Z,11.80
2023-03-23T22:02:34.990Z,11.70
2023-03-23T22:06:36.217Z,11.60
2023-03-23T22:10:43.658Z,11.60
2023-03-23T22:15:02.048Z,11.50
2023-03-23T22:19:03.503Z,11.40
2023-03-23T22:23:04.097Z,11.30
2023-03-23T22:27:10.267Z,11.30
2023-03-23T22:31:17.708Z,11.20
2023-03-23T22:35:18.314Z,11.20
2023-03-23T22:39:19.238Z,11.20
2023-03-23T22:43:22.437Z,11.10
2023-03-23T22:47:23.421Z,11.10
2023-03-23T22:51:25.756Z,11.00
2023-03-23T22:55:27.294Z,11.00
2023-03-23T22:59:32.071Z,11.00
2023-03-23T23:03:35.189Z,11.00
2023-03-23T23:07:37.257Z,10.90
2023-03-23T23:11:40.153Z,10.90
2023-03-23T23:15:48.173Z,10.90
2023-03-23T23:19:52.192Z,10.90
2023-03-23T23:23:53.386Z,10.90
2023-03-23T23:27:53.735Z,10.80
2023-03-23T23:31:57.262Z,10.80
2023-03-23T23:35:58.490Z,10.80
2023-03-23T23:39:59.474Z,10.80
2023-03-23T23:44:00.087Z,10.70
2023-03-23T23:48:03.814Z,10.80
2023-03-23T23:52:04.915Z,10.80
2023-03-23T23:56:07.287Z,10.80
